Time;durP1;ratioP1;P1;durP2;ratioP2;P2;SDS_P1;SDS_P2;PMS_P1;PMS_P2;Temp;Humidity;BMP_temperature;BMP_pressure;BME280_temperature;BME280_humidity;BME280_pressure;Samples;Min_cycle;Max_cycle;Signal;HPM_P1;HPM_P2
2023/07/28 00:01:16;;;;;;;0.70;0.50;;;;;;;18.54;100.00;99620.13;8415603;28;20406;-64
2023/07/28 00:05:17;;;;;;;2.17;0.50;;;;;;;18.54;100.00;99628.31;8414544;28;20032;-64
2023/07/28 00:09:17;;;;;;;0.47;0.40;;;;;;;18.59;100.00;99633.16;8445487;28;20066;-62
2023/07/28 00:13:18;;;;;;;0.40;0.30;;;;;;;18.58;100.00;99624.13;8445854;28;20036;-63
2023/07/28 00:17:18;;;;;;;0.20;0.13;;;;;;;18.61;100.00;99628.31;8415294;28;20047;-63
2023/07/28 00:21:19;;;;;;;1.45;0.38;;;;;;;18.59;100.00;99619.47;8414449;28;20040;-63
2023/07/28 00:25:19;;;;;;;0.32;0.30;;;;;;;18.64;100.00;99628.75;8416557;28;20124;-64
2023/07/28 00:29:20;;;;;;;0.30;0.30;;;;;;;18.67;100.00;99630.22;8414910;28;20401;-63
2023/07/28 00:33:20;;;;;;;2.53;0.30;;;;;;;18.69;100.00;99626.19;8413239;28;20040;-63
2023/07/28 00:37:20;;;;;;;0.40;0.32;;;;;;;18.71;100.00;99624.09;8416030;28;20043;-64
2023/07/28 00:41:21;;;;;;;0.43;0.22;;;;;;;18.74;100.00;99617.34;8415737;28;20131;-63
2023/07/28 00:45:22;;;;;;;0.63;0.30;;;;;;;18.74;100.00;99617.34;8414556;28;20040;-63
2023/07/28 00:49:22;;;;;;;0.20;0.17;;;;;;;18.73;100.00;99611.00;8413758;28;20036;-64
2023/07/28 00:53:23;;;;;;;0.10;0.10;;;;;;;18.74;100.00;99620.06;8413846;28;20442;-63
2023/07/28 00:57:24;;;;;;;1.80;0.30;;;;;;;18.77;100.00;99623.25;8416708;28;20079;-63
2023/07/28 01:01:24;;;;;;;1.13;0.38;;;;;;;18.78;100.00;99613.97;8413474;28;20504;-63
2023/07/28 01:05:35;;;;;;;0.50;0.22;;;;;;;18.81;100.00;99613.53;8411358;28;20040;-63
2023/07/28 01:09:52;;;;;;;0.73;0.20;;;;;;;18.83;100.00;99613.31;8412658;28;20039;-63
2023/07/28 01:13:52;;;;;;;0.57;0.50;;;;;;;18.78;100.00;99605.75;8414778;28;20401;-63
2023/07/28 01:17:53;;;;;;;0.95;0.50;;;;;;;18.83;100.00;99610.56;8418094;28;20044;-63
2023/07/28 01:22:11;;;;;;;2.55;0.28;;;;;;;18.80;100.00;99609.13;8416986;28;20033;-63
2023/07/28 01:26:13;;;;;;;4.57;0.47;;;;;;;18.78;100.00;99608.47;8418368;28;20039;-63
2023/07/28 01:30:14;;;;;;;0.82;0.30;;;;;;;18.75;100.00;99608.91;8418256;28;20170;-63
2023/07/28 01:34:15;;;;;;;0.40;0.30;;;;;;;18.70;100.00;99611.44;8417056;28;20497;-63
2023/07/28 01:38:16;;;;;;;2.30;0.30;;;;;;;18.65;100.00;99616.75;8419758;28;20067;-64
2023/07/28 01:42:16;;;;;;;0.40;0.30;;;;;;;18.64;100.00;99615.06;8422432;28;20041;-63
2023/07/28 01:46:17;;;;;;;1.85;0.20;;;;;;;18.63;100.00;99605.16;8422080;28;20035;-64
2023/07/28 01:50:17;;;;;;;0.20;0.20;;;;;;;18.64;100.00;99606.84;8419044;28;20411;-63
2023/07/28 01:54:17;;;;;;;1.55;0.30;;;;;;;18.67;100.00;99600.91;8418954;28;20590;-63
2023/07/28 01:58:18;;;;;;;2.53;0.35;;;;;;;18.69;100.00;99595.22;8419962;28;20039;-63
2023/07/28 02:02:18;;;;;;;0.98;0.30;;;;;;;18.71;100.00;99593.97;8418277;28;20032;-63
2023/07/28 02:06:19;;;;;;;3.25;0.40;;;;;;;18.75;100.00;99600.69;8415987;28;20575;-63
2023/07/28 02:10:19;;;;;;;0.60;0.30;;;;;;;18.80;100.00;99605.53;8420844;28;20158;-63
2023/07/28 02:14:20;;;;;;;0.77;0.30;;;;;;;18.81;100.00;99601.72;8420340;28;20047;-64
2023/07/28 02:18:20;;;;;;;1.15;0.50;;;;;;;18.86;100.00;99600.03;8418809;28;20074;-63
2023/07/28 02:22:21;;;;;;;0.30;0.30;;;;;;;18.89;100.00;99599.59;8418762;28;20040;-63
2023/07/28 02:26:21;;;;;;;4.40;0.55;;;;;;;18.90;100.00;99606.75;8418489;28;20480;-63
2023/07/28 02:30:22;;;;;;;1.05;0.60;;;;;;;18.87;100.00;99607.19;8418752;28;20127;-63
2023/07/28 02:34:23;;;;;;;0.50;0.40;;;;;;;18.87;100.00;99601.72;8420077;28;20044;-63
2023/07/28 02:38:24;;;;;;;1.00;0.70;;;;;;;18.86;100.00;99608.25;8419425;28;20036;-63
2023/07/28 02:42:25;;;;;;;1.00;0.50;;;;;;;18.86;100.00;99604.66;8418316;28;20409;-63
2023/07/28 02:46:25;;;;;;;3.90;1.00;;;;;;;18.87;100.00;99601.72;8419528;28;20043;-63
2023/07/28 02:50:26;;;;;;;2.47;0.65;;;;;;;18.89;100.00;99605.09;8417962;28;20040;-61
2023/07/28 02:54:26;;;;;;;4.28;0.88;;;;;;;18.88;100.00;99608.88;8419135;28;20040;-61
2023/07/28 02:58:27;;;;;;;5.28;0.90;;;;;;;18.89;100.00;99616.03;8415658;28;20046;-61
2023/07/28 03:02:27;;;;;;;4.97;0.95;;;;;;;18.91;100.00;99618.56;8402678;28;20468;-60
2023/07/28 03:06:31;;;;;;;3.90;1.08;;;;;;;18.90;100.00;99617.72;8410148;28;20029;-61
2023/07/28 03:10:32;;;;;;;2.35;0.93;;;;;;;18.91;100.00;99619.38;8410152;28;20032;-60
2023/07/28 03:14:33;;;;;;;4.85;1.20;;;;;;;18.91;100.00;99622.13;8409606;28;20043;-61
2023/07/28 03:18:33;;;;;;;2.40;1.20;;;;;;;18.93;100.00;99628.25;8406158;28;20036;-61
2023/07/28 03:22:34;;;;;;;2.30;1.00;;;;;;;18.95;100.00;99626.13;8413529;28;20035;-61
2023/07/28 03:26:35;;;;;;;4.13;1.50;;;;;;;18.96;100.00;99627.81;8406352;28;20036;-60
2023/07/28 03:30:35;;;;;;;5.25;1.42;;;;;;;18.94;100.00;99627.16;8404821;28;20119;-60
2023/07/28 03:34:36;;;;;;;1.75;1.17;;;;;;;18.88;100.00;99628.03;8405408;28;20033;-60
2023/07/28 03:38:39;;;;;;;4.05;1.30;;;;;;;18.86;100.00;99635.66;8407846;28;20398;-60
2023/07/28 03:42:40;;;;;;;2.45;1.17;;;;;;;18.83;100.00;99637.97;8408719;28;20032;-61
2023/07/28 03:46:41;;;;;;;3.65;0.98;;;;;;;18.75;100.00;99636.28;8406659;28;20036;-61
2023/07/28 03:50:41;;;;;;;1.05;0.70;;;;;;;18.75;100.00;99636.28;8405938;28;20116;-61
2023/07/28 03:54:41;;;;;;;2.22;1.00;;;;;;;18.76;100.00;99632.50;8408727;28;20041;-61
2023/07/28 03:58:42;;;;;;;1.40;1.08;;;;;;;18.74;100.00;99640.09;8407318;28;20471;-61
2023/07/28 04:02:42;;;;;;;1.35;0.50;;;;;;;18.74;100.00;99644.72;8405368;28;20051;-61
2023/07/28 04:06:45;;;;;;;1.38;0.82;;;;;;;18.69;100.00;99637.16;8404960;28;20036;-60
2023/07/28 04:10:46;;;;;;;1.27;0.70;;;;;;;18.71;100.00;99635.06;8408316;28;20036;-60
2023/07/28 04:14:46;;;;;;;0.93;0.60;;;;;;;18.69;100.00;99637.16;8406807;28;20047;-60
2023/07/28 04:18:47;;;;;;;0.70;0.60;;;;;;;18.74;100.00;99639.25;8406360;28;20048;-61
2023/07/28 04:22:47;;;;;;;2.25;0.57;;;;;;;18.73;100.00;99643.88;8407380;28;20068;-62
2023/07/28 04:26:49;;;;;;;0.82;0.60;;;;;;;18.72;100.00;99636.72;8408735;28;20040;-61
2023/07/28 04:30:50;;;;;;;1.05;0.60;;;;;;;18.73;100.00;99632.91;8403440;28;20040;-60
2023/07/28 04:35:10;;;;;;;2.55;0.50;;;;;;;18.77;100.00;99639.66;8404911;28;20064;-61
2023/07/28 04:39:23;;;;;;;0.90;0.40;;;;;;;18.77;100.00;99650.63;8405427;28;20086;-61
2023/07/28 04:43:23;;;;;;;0.40;0.40;;;;;;;18.79;100.00;99647.66;8408124;28;20040;-60
2023/07/28 04:47:27;;;;;;;;;;;;;;;18.81;100.00;99657.34;8407319;28;20035;-60
2023/07/28 04:51:28;;;;;;;1.70;0.40;;;;;;;18.83;100.00;99658.00;8406257;28;19939;-61
2023/07/28 04:55:48;;;;;;;2.15;0.30;;;;;;;18.85;100.00;99658.59;8404802;28;20048;-60
2023/07/28 04:59:49;;;;;;;4.28;0.40;;;;;;;18.87;100.00;99659.22;8405007;28;20040;-60
2023/07/28 05:03:49;;;;;;;2.75;0.30;;;;;;;18.90;100.00;99656.06;8399547;28;20033;-61
2023/07/28 05:07:56;;;;;;;2.40;0.50;;;;;;;18.91;100.00;99657.72;8400284;28;20272;-61
2023/07/28 05:11:56;;;;;;;17.25;1.17;;;;;;;18.94;100.00;99668.25;8402462;28;20119;-61
2023/07/28 05:15:57;;;;;;;1.63;0.90;;;;;;;19.01;100.00;99673.72;8404244;28;20044;-61
2023/07/28 05:20:18;;;;;;;2.20;0.38;;;;;;;18.98;100.00;99680.50;8401859;28;20033;-62
2023/07/28 05:24:26;;;;;;;0.90;0.30;;;;;;;18.98;100.00;99680.50;8407190;28;20358;-61
2023/07/28 05:28:26;;;;;;;1.83;0.20;;;;;;;19.01;100.00;99677.31;8400463;28;20060;-61
2023/07/28 05:32:30;;;;;;;0.43;0.30;;;;;;;19.08;100.00;99680.88;8304354;22;20052;-86
2023/07/28 05:36:44;;;;;;;1.13;0.20;;;;;;;19.10;100.00;99684.25;8249067;28;20038;-85
2023/07/28 05:40:46;;;;;;;0.40;0.20;;;;;;;19.14;100.00;99696.47;8244983;28;20044;-83
2023/07/28 05:44:46;;;;;;;1.80;0.25;;;;;;;19.18;100.00;99689.47;8281783;28;20303;-84
2023/07/28 05:48:47;;;;;;;0.75;0.20;;;;;;;19.19;100.00;99682.13;8286371;28;20033;-83
2023/07/28 05:52:47;;;;;;;6.13;0.40;;;;;;;19.21;100.00;99697.28;8278102;28;20045;-83
2023/07/28 05:56:48;;;;;;;0.95;0.40;;;;;;;19.18;100.00;99691.38;8267952;28;20057;-83
2023/07/28 06:00:48;;;;;;;0.52;0.40;;;;;;;19.27;100.00;99701.94;8279127;28;20048;-84
2023/07/28 06:05:09;;;;;;;0.57;0.50;;;;;;;19.28;100.00;99691.81;8283034;28;20045;-84
2023/07/28 06:09:09;;;;;;;2.28;0.57;;;;;;;19.33;100.00;99706.53;8267261;28;20057;-84
2023/07/28 06:13:11;;;;;;;1.45;0.40;;;;;;;19.19;100.00;99671.97;8275492;28;20495;-84
2023/07/28 06:17:12;;;;;;;0.93;0.50;;;;;;;19.36;100.00;99717.06;8291029;28;20579;-85
2023/07/28 06:21:12;;;;;;;2.05;0.77;;;;;;;19.43;100.00;99717.88;8299973;28;20480;-84
2023/07/28 06:25:13;;;;;;;1.00;0.75;;;;;;;19.47;100.00;99723.78;8263427;28;20085;-83
2023/07/28 06:29:13;;;;;;;0.88;0.75;;;;;;;19.43;100.00;99709.66;8274771;28;20037;-83
2023/07/28 06:33:14;;;;;;;1.13;0.50;;;;;;;19.52;100.00;99720.41;8283108;28;20072;-83
2023/07/28 06:37:15;;;;;;;2.85;0.73;;;;;;;19.64;100.00;99730.44;8275560;28;20046;-84
2023/07/28 06:41:15;;;;;;;22.48;2.78;;;;;;;19.68;100.00;99733.59;8276014;28;20415;-83
2023/07/28 06:45:18;;;;;;;1.40;0.65;;;;;;;19.81;100.00;99730.78;8269423;28;20068;-82
2023/07/28 06:49:18;;;;;;;1.00;0.80;;;;;;;19.91;100.00;99733.94;8293712;28;20047;-83
2023/07/28 06:53:19;;;;;;;1.60;0.70;;;;;;;19.96;100.00;99734.09;8274534;28;20394;-83
2023/07/28 06:57:20;;;;;;;3.08;1.10;;;;;;;20.03;100.00;99740.41;8280031;28;20050;-84
2023/07/28 07:01:22;;;;;;;0.95;0.85;;;;;;;20.00;100.00;99729.88;8279187;28;20268;-84
2023/07/28 07:05:23;;;;;;;2.17;0.90;;;;;;;19.95;100.00;99724.19;8265446;28;20042;-84
2023/07/28 07:09:24;;;;;;;2.10;0.82;;;;;;;20.06;100.00;99728.97;8277885;28;20317;-87
2023/07/28 07:13:25;;;;;;;1.27;0.75;;;;;;;20.31;100.00;99754.59;8288710;28;20049;-86
2023/07/28 07:17:25;;;;;;;1.92;0.75;;;;;;;20.41;100.00;99754.94;8277425;28;20037;-85
2023/07/28 07:21:27;;;;;;;2.72;0.70;;;;;;;20.43;100.00;99747.34;8293726;28;20034;-83
2023/07/28 07:25:28;;;;;;;1448.35;230.50;;;;;;;20.54;100.00;99763.09;8256688;28;20029;-86
2023/07/28 07:29:28;;;;;;;1.63;0.57;;;;;;;20.57;100.00;99765.38;8257803;28;20128;-85
2023/07/28 07:39:43;;;;;;;1.75;0.60;;;;;;;20.78;100.00;99778.75;8294407;28;21009;-60
2023/07/28 07:43:43;;;;;;;0.60;0.60;;;;;;;20.96;100.00;99781.56;8296743;28;20034;-60
2023/07/28 07:47:44;;;;;;;2.75;0.80;;;;;;;21.12;100.00;99781.00;8296187;28;20093;-60
2023/07/28 07:51:44;;;;;;;3.63;1.10;;;;;;;21.29;100.00;99776.59;8295301;28;20041;-60
2023/07/28 07:55:45;;;;;;;2.55;0.65;;;;;;;21.60;100.00;99784.72;8298238;28;20104;-60
2023/07/28 07:59:45;;;;;;;1.98;0.50;;;;;;;21.75;100.00;99787.97;8296780;28;20072;-60
2023/07/28 08:03:46;;;;;;;2.22;1.05;;;;;;;21.67;100.00;99790.97;8290403;28;20384;-60
2023/07/28 08:07:47;;;;;;;16.25;0.90;;;;;;;21.63;100.00;99795.25;8276100;28;20120;-60
2023/07/28 08:11:48;;;;;;;55.92;5.93;;;;;;;21.83;100.00;99801.38;8262941;28;20038;-61
2023/07/28 08:15:49;;;;;;;0.70;0.70;;;;;;;21.83;100.00;99808.81;8295329;28;20072;-61
2023/07/28 08:19:49;;;;;;;0.65;0.60;;;;;;;21.63;100.00;99806.28;8295462;28;20122;-61
2023/07/28 08:23:50;;;;;;;1.90;0.68;;;;;;;21.73;100.00;99805.72;8298222;28;20041;-61
2023/07/28 08:27:50;;;;;;;4.95;0.60;;;;;;;21.86;100.00;99803.69;8293468;28;20455;-60
2023/07/28 08:31:51;;;;;;;2.50;0.50;;;;;;;22.29;100.00;99807.13;8290856;28;20088;-60
2023/07/28 08:35:51;;;;;;;1.25;0.60;;;;;;;22.73;100.00;99798.44;8293453;28;20124;-61
2023/07/28 09:41:25;;;;;;;0.98;0.45;;;;;;;21.88;100.00;99819.97;8311112;28;20461;-61
2023/07/28 11:26:40;;;;;;;793.70;121.05;;;;;;;26.50;80.46;99839.66;8334081;27;20792;-63
2023/07/28 11:30:42;;;;;;;287.75;47.85;;;;;;;26.40;80.70;99826.50;8331186;28;20095;-63
2023/07/28 11:34:43;;;;;;;3.45;0.80;;;;;;;26.24;78.85;99838.53;8330177;28;20040;-63
2023/07/28 11:38:44;;;;;;;85.53;9.43;;;;;;;26.78;76.30;99818.06;8354108;28;20040;-63
2023/07/28 11:42:47;;;;;;;35.60;4.88;;;;;;;26.61;79.34;99822.03;8360255;28;20037;-63
2023/07/28 11:46:53;;;;;;;21.20;1.58;;;;;;;27.34;76.29;99824.13;8361093;28;20037;-63
2023/07/28 11:50:56;;;;;;;0.60;0.30;;;;;;;26.83;75.45;99826.44;8360893;28;20421;-62
2023/07/28 11:54:56;;;;;;;3.28;0.30;;;;;;;25.91;78.92;99833.06;8361212;28;20049;-63
2023/07/28 11:58:57;;;;;;;1.75;0.30;;;;;;;25.44;81.21;99825.47;8364690;28;20131;-63
2023/07/28 12:03:03;;;;;;;0.20;0.10;;;;;;;25.12;82.68;99825.19;8364862;28;20466;-63
2023/07/28 12:07:14;;;;;;;2.28;0.30;;;;;;;24.81;86.28;99821.06;8357999;28;20465;-63
2023/07/28 12:11:17;;;;;;;7.53;0.57;;;;;;;24.69;86.65;99817.53;8360959;28;20036;-63
2023/07/28 12:15:27;;;;;;;4.85;0.55;;;;;;;24.39;86.35;99821.59;8362100;28;20033;-63
2023/07/28 12:19:27;;;;;;;3.85;0.38;;;;;;;24.02;90.96;99825.81;8356431;28;20039;-63
2023/07/28 12:23:28;;;;;;;1.58;0.38;;;;;;;23.67;92.65;99827.78;8362606;28;20041;-63
2023/07/28 12:27:28;;;;;;;86.15;5.47;;;;;;;23.51;94.11;99834.03;8360082;28;20537;-63
2023/07/28 12:31:28;;;;;;;2.15;0.40;;;;;;;23.59;95.04;99825.38;8361809;28;20024;-63
2023/07/28 12:35:31;;;;;;;4.40;0.77;;;;;;;23.76;94.17;99818.06;8350364;28;20036;-63
2023/07/28 12:39:32;;;;;;;2.67;0.40;;;;;;;23.99;90.68;99820.78;8338428;28;20478;-64
2023/07/28 12:43:33;;;;;;;0.88;0.30;;;;;;;24.08;88.78;99825.69;8339954;28;20059;-63
2023/07/28 12:47:33;;;;;;;11.95;0.98;;;;;;;24.13;88.92;99833.25;8337086;28;20052;-64
2023/07/28 12:51:34;;;;;;;0.35;0.28;;;;;;;24.26;90.12;99832.94;8337857;28;20041;-64
2023/07/28 12:55:34;;;;;;;1.90;0.40;;;;;;;24.18;90.15;99841.66;8338081;28;20069;-63
2023/07/28 12:59:35;;;;;;;6.22;0.40;;;;;;;24.06;89.49;99843.59;8339770;28;20060;-63
2023/07/28 13:03:36;;;;;;;0.65;0.40;;;;;;;23.92;89.52;99836.63;8338877;28;20037;-63
2023/07/28 13:07:37;;;;;;;0.43;0.30;;;;;;;24.04;91.57;99845.75;8338397;28;20115;-63
2023/07/28 13:11:38;;;;;;;0.30;0.30;;;;;;;24.00;90.93;99844.56;8329769;28;20190;-63
2023/07/28 13:15:38;;;;;;;3.05;0.28;;;;;;;24.03;94.59;99844.09;8334291;28;20705;-63
2023/07/28 13:19:39;;;;;;;0.52;0.25;;;;;;;24.12;92.36;99848.16;8335476;28;20040;-63
2023/07/28 13:23:40;;;;;;;5.25;0.75;;;;;;;23.95;93.91;99852.75;8337262;28;20044;-63
2023/07/28 13:27:40;;;;;;;0.30;0.20;;;;;;;23.92;95.21;99850.44;8335268;28;20044;-63
2023/07/28 13:31:42;;;;;;;0.47;0.22;;;;;;;24.26;96.96;99844.84;8331905;28;20322;-63
2023/07/28 13:35:43;;;;;;;0.20;0.05;;;;;;;24.46;92.20;99838.91;8337598;28;20550;-63
2023/07/28 13:39:43;;;;;;;2.67;0.08;;;;;;;24.55;90.15;99841.00;8337764;28;20036;-63
2023/07/28 13:43:43;;;;;;;0.40;0.20;;;;;;;24.88;89.64;99837.47;8326428;28;20216;-63
2023/07/28 13:47:44;;;;;;;0.17;0.00;;;;;;;24.91;86.81;99846.13;8334055;28;20410;-64
2023/07/28 13:51:44;;;;;;;1.85;0.20;;;;;;;24.85;91.30;99849.91;8333980;28;20513;-63
2023/07/28 13:55:45;;;;;;;0.30;0.20;;;;;;;24.75;89.09;99846.94;8335101;28;20049;-63
2023/07/28 13:59:45;;;;;;;0.03;0.03;;;;;;;24.71;91.56;99844.94;8332246;28;20497;-64
2023/07/28 14:03:45;;;;;;;0.10;0.10;;;;;;;24.88;91.10;99848.53;8336843;28;20269;-63
2023/07/28 14:07:46;;;;;;;1.08;0.10;;;;;;;24.86;88.29;99831.38;8333449;28;20114;-63
2023/07/28 14:11:46;;;;;;;0.20;0.20;;;;;;;24.79;89.43;99833.44;8335217;28;20037;-63
2023/07/28 14:15:47;;;;;;;1.23;0.00;;;;;;;24.80;88.66;99832.38;8335566;28;20296;-63
2023/07/28 14:19:47;;;;;;;0.10;0.10;;;;;;;24.90;88.31;99827.03;8336372;28;20061;-63
2023/07/28 14:23:48;;;;;;;0.20;0.10;;;;;;;24.83;87.73;99823.59;8336517;28;20410;-63
2023/07/28 14:27:48;;;;;;;1.10;0.40;;;;;;;24.69;90.21;99816.69;8338132;28;20422;-62
2023/07/28 14:31:49;;;;;;;0.10;0.10;;;;;;;24.77;89.62;99808.81;8336439;28;20072;-62
2023/07/28 14:35:50;;;;;;;0.45;0.20;;;;;;;24.83;90.25;99818.06;8334653;28;20045;-63
2023/07/28 14:39:50;;;;;;;0.03;0.03;;;;;;;24.69;89.59;99820.28;8335788;28;20047;-63
2023/07/28 14:43:51;;;;;;;0.20;0.20;;;;;;;25.05;88.38;99816.22;8335399;28;20448;-63
2023/07/28 14:47:52;;;;;;;0.47;0.10;;;;;;;25.36;87.03;99810.13;8333558;28;20044;-63
2023/07/28 14:51:52;;;;;;;0.10;0.10;;;;;;;25.34;84.86;99806.75;8325934;28;20053;-63
2023/07/28 14:55:53;;;;;;;0.20;0.10;;;;;;;25.50;85.24;99808.69;8302850;28;20418;-63
2023/07/28 14:59:53;;;;;;;0.55;0.10;;;;;;;25.28;85.26;99812.44;8303550;28;20045;-63
2023/07/28 15:03:53;;;;;;;0.77;0.20;;;;;;;25.08;84.29;99821.25;8334954;28;20716;-63
2023/07/28 15:07:54;;;;;;;0.13;0.10;;;;;;;25.03;86.04;99815.63;8333148;28;20083;-63
2023/07/28 15:11:54;;;;;;;0.10;0.10;;;;;;;25.00;86.05;99808.66;8334197;28;20040;-63
2023/07/28 15:15:55;;;;;;;0.10;0.10;;;;;;;25.23;86.75;99818.72;8334942;28;20049;-63
2023/07/28 15:19:56;;;;;;;0.30;0.17;;;;;;;25.48;83.77;99819.16;8333886;28;20395;-63
2023/07/28 15:23:56;;;;;;;0.10;0.10;;;;;;;25.38;83.52;99816.25;8331687;28;20589;-63
2023/07/28 15:27:57;;;;;;;0.20;0.20;;;;;;;25.05;85.95;99827.28;8336070;28;20299;-63
2023/07/28 15:31:57;;;;;;;0.17;0.17;;;;;;;24.30;95.41;99839.66;8331712;28;20037;-64
2023/07/28 15:35:58;;;;;;;1.15;0.30;;;;;;;23.86;100.00;99830.16;8331236;28;20117;-63
2023/07/28 15:39:58;;;;;;;0.60;0.30;;;;;;;23.80;100.00;99838.56;8333274;28;20239;-63
2023/07/28 15:43:58;;;;;;;0.65;0.20;;;;;;;24.01;100.00;99837.94;8331515;28;20380;-63
2023/07/28 15:47:59;;;;;;;0.30;0.30;;;;;;;23.92;100.00;99842.13;8331357;28;20429;-63
2023/07/28 15:52:00;;;;;;;0.88;0.20;;;;;;;23.86;99.64;99829.31;8333051;28;20029;-63
2023/07/28 15:56:00;;;;;;;0.45;0.20;;;;;;;23.72;100.00;99836.19;8339562;28;20033;-63
2023/07/28 16:00:01;;;;;;;0.30;0.30;;;;;;;23.83;99.75;99829.78;8342385;28;20042;-63
2023/07/28 16:04:24;;;;;;;0.30;0.30;;;;;;;24.10;96.63;99844.78;8311941;28;20421;-63
2023/07/28 16:08:24;;;;;;;3.13;0.30;;;;;;;24.06;99.33;99843.59;8309809;28;20037;-63
2023/07/28 16:12:26;;;;;;;1.73;0.35;;;;;;;23.77;100.00;99850.09;8307800;28;20136;-63
2023/07/28 16:16:26;;;;;;;0.50;0.50;;;;;;;23.63;100.00;99843.16;8311980;28;20586;-63
2023/07/28 16:20:27;;;;;;;2.55;0.40;;;;;;;23.48;100.00;99840.03;8308789;28;20377;-63
2023/07/28 16:24:29;;;;;;;0.45;0.30;;;;;;;23.50;100.00;99840.63;8309347;28;20049;-63
2023/07/28 16:28:29;;;;;;;1.30;0.40;;;;;;;23.55;100.00;99843.50;8312371;28;20046;-63
2023/07/28 16:32:29;;;;;;;0.35;0.30;;;;;;;23.64;100.00;99844.81;8302986;28;20061;-63
2023/07/28 16:36:30;;;;;;;1.02;0.40;;;;;;;23.81;100.00;99829.19;8305511;28;20041;-63
2023/07/28 16:40:30;;;;;;;4.93;1.23;;;;;;;24.21;100.00;99835.63;8307586;28;20038;-63
2023/07/28 16:44:31;;;;;;;0.90;0.47;;;;;;;24.30;98.09;99818.41;8303309;28;20025;-63
2023/07/28 16:48:31;;;;;;;0.77;0.43;;;;;;;24.34;96.05;99813.22;8311303;28;20041;-63
2023/07/28 16:52:33;;;;;;;0.75;0.50;;;;;;;24.47;92.42;99815.69;8310520;28;20514;-63
2023/07/28 16:56:33;;;;;;;1.40;0.60;;;;;;;24.45;91.76;99804.03;8311469;28;20557;-64
2023/07/28 17:00:34;;;;;;;1.02;0.40;;;;;;;24.43;90.21;99811.75;8312007;28;20183;-63
2023/07/28 17:04:34;;;;;;;1.40;0.60;;;;;;;24.40;91.61;99806.72;8311323;28;20038;-63
2023/07/28 17:08:34;;;;;;;1.38;0.60;;;;;;;24.40;89.22;99798.44;8310157;28;20069;-63
2023/07/28 17:12:35;;;;;;;0.57;0.50;;;;;;;24.49;89.83;99817.09;8306575;28;20492;-63
2023/07/28 17:16:35;;;;;;;0.45;0.40;;;;;;;24.27;91.51;99807.00;8284299;28;20589;-63
2023/07/28 17:20:36;;;;;;;1.67;0.60;;;;;;;24.20;91.55;99806.31;8287870;28;20045;-63
2023/07/28 17:24:37;;;;;;;0.80;0.40;;;;;;;24.21;92.84;99808.00;8289054;28;20144;-64
2023/07/28 17:28:38;;;;;;;1.52;0.50;;;;;;;24.08;94.37;99808.25;8286537;28;20574;-63
2023/07/28 17:32:39;;;;;;;1.42;0.55;;;;;;;24.03;92.53;99805.41;8288182;28;20132;-63
2023/07/28 17:36:39;;;;;;;0.75;0.68;;;;;;;24.04;92.08;99813.47;8287875;28;20096;-63
2023/07/28 17:40:40;;;;;;;1.55;0.60;;;;;;;24.06;91.66;99827.03;8288355;28;20537;-65
2023/07/28 17:44:40;;;;;;;0.90;0.63;;;;;;;24.01;93.46;99832.44;8288957;28;20044;-63
2023/07/28 17:48:41;;;;;;;0.85;0.70;;;;;;;23.93;92.97;99832.75;8287755;28;20042;-63
2023/07/28 17:52:42;;;;;;;0.95;0.70;;;;;;;23.90;92.59;99830.50;8287266;28;20042;-63
2023/07/28 17:56:42;;;;;;;0.70;0.45;;;;;;;23.81;93.52;99829.19;8283860;28;20042;-63
2023/07/28 18:00:43;;;;;;;1.30;0.50;;;;;;;23.76;93.35;99831.84;8286983;28;20096;-63
2023/07/28 18:04:44;;;;;;;1.17;0.73;;;;;;;23.69;95.02;99825.63;8287194;28;20038;-63
2023/07/28 18:08:44;;;;;;;1.20;0.70;;;;;;;23.66;94.48;99823.34;8287420;28;20088;-64
2023/07/28 18:12:45;;;;;;;2.40;0.73;;;;;;;23.63;94.02;99819.13;8286044;28;20100;-63
2023/07/28 18:16:46;;;;;;;1.35;0.88;;;;;;;23.61;94.32;99818.56;8287960;28;20038;-64
2023/07/28 18:20:46;;;;;;;2.00;0.75;;;;;;;23.53;94.07;99816.16;8287908;28;20042;-63
2023/07/28 18:24:46;;;;;;;1.92;0.80;;;;;;;23.44;95.94;99822.25;8286920;28;20590;-63
2023/07/28 18:28:47;;;;;;;1.05;0.80;;;;;;;23.41;95.04;99822.75;8286206;28;20038;-63
2023/07/28 18:32:47;;;;;;;1.17;1.02;;;;;;;23.41;96.05;99833.78;8287546;28;20038;-63
2023/07/28 18:36:52;;;;;;;1.15;0.70;;;;;;;23.36;96.27;99831.75;8286514;28;20175;-63
2023/07/28 18:40:53;;;;;;;1.45;0.98;;;;;;;23.31;95.60;99823.38;8287389;28;20099;-63
2023/07/28 18:44:54;;;;;;;1.08;0.80;;;;;;;23.36;95.46;99828.16;8286068;28;20084;-64
2023/07/28 18:48:55;;;;;;;0.98;0.82;;;;;;;23.31;96.74;99830.78;8286492;28;20044;-63
2023/07/28 18:52:55;;;;;;;2.38;1.05;;;;;;;23.25;98.37;99838.13;8285052;28;20041;-63
2023/07/28 18:56:56;;;;;;;0.82;0.60;;;;;;;23.20;99.86;99841.56;8286441;28;20038;-63
2023/07/28 19:00:56;;;;;;;0.57;0.57;;;;;;;23.15;99.97;99835.91;8279889;28;20271;-63
2023/07/28 19:04:56;;;;;;;2.63;0.80;;;;;;;23.06;100.00;99842.84;8284273;28;20038;-63
2023/07/28 19:08:57;;;;;;;2.20;0.90;;;;;;;23.04;100.00;99836.75;8286231;28;20045;-63
2023/07/28 19:12:57;;;;;;;1.30;0.82;;;;;;;23.03;100.00;99837.81;8281914;28;20146;-63
2023/07/28 19:16:58;;;;;;;1.40;0.90;;;;;;;22.97;100.00;99835.16;8283345;28;20077;-63
2023/07/28 19:20:58;;;;;;;2.43;0.80;;;;;;;22.82;100.00;99832.03;8285208;28;20403;-63
2023/07/28 19:24:59;;;;;;;3.03;0.70;;;;;;;22.78;100.00;99828.06;8285094;28;20682;-63
2023/07/28 19:28:59;;;;;;;1.95;1.08;;;;;;;22.65;100.00;99834.59;8282684;28;20116;-63
2023/07/28 19:33:00;;;;;;;1.30;1.00;;;;;;;22.62;100.00;99839.75;8277151;28;20034;-63
2023/07/28 19:37:00;;;;;;;1.48;0.70;;;;;;;22.58;100.00;99839.38;8278661;28;20067;-64
2023/07/28 19:41:01;;;;;;;1.25;1.00;;;;;;;22.52;100.00;99832.06;8279726;28;20273;-63
2023/07/28 19:45:01;;;;;;;1.25;0.60;;;;;;;22.48;100.00;99833.53;8279651;28;20058;-63
2023/07/28 19:49:02;;;;;;;0.85;0.60;;;;;;;22.44;100.00;99835.09;8277194;28;20037;-63
2023/07/28 19:53:03;;;;;;;2.72;0.80;;;;;;;22.51;100.00;99849.63;8279173;28;20380;-63
2023/07/28 19:57:06;;;;;;;1.20;0.90;;;;;;;22.49;100.00;99850.94;8281797;28;20049;-63
2023/07/28 20:01:07;;;;;;;1.27;1.02;;;;;;;22.53;100.00;99847.50;8279362;28;20492;-63
2023/07/28 20:05:07;;;;;;;1.20;0.65;;;;;;;22.51;100.00;99859.84;8281254;28;20161;-63
2023/07/28 20:09:08;;;;;;;0.70;0.40;;;;;;;22.55;100.00;99856.38;8279023;28;20049;-63
2023/07/28 20:13:08;;;;;;;1.83;0.70;;;;;;;22.56;100.00;99852.53;8280632;28;20045;-64
2023/07/28 20:17:08;;;;;;;1.48;0.60;;;;;;;22.51;100.00;99863.41;8279053;28;20554;-63
2023/07/28 20:21:09;;;;;;;1.52;0.70;;;;;;;22.50;100.00;99872.78;8279413;28;20341;-63
2023/07/28 20:25:09;;;;;;;2.58;0.50;;;;;;;22.44;100.00;99864.56;8275129;28;20045;-63
2023/07/28 20:29:10;;;;;;;0.47;0.47;;;;;;;22.45;100.00;99867.06;8275653;28;20152;-63
2023/07/28 20:33:10;;;;;;;0.40;0.40;;;;;;;22.43;100.00;99849.94;8279777;28;20038;-63
2023/07/28 20:37:11;;;;;;;0.70;0.45;;;;;;;22.47;100.00;99853.91;8279068;28;20488;-63
2023/07/28 20:41:11;;;;;;;0.40;0.30;;;;;;;22.52;100.00;99854.09;8279902;28;20466;-63
2023/07/28 20:45:12;;;;;;;1.48;0.40;;;;;;;22.54;100.00;99854.69;8281075;28;20164;-63
2023/07/28 20:49:12;;;;;;;0.40;0.32;;;;;;;22.53;100.00;99858.53;8281308;28;20045;-64
2023/07/28 20:53:13;;;;;;;0.43;0.30;;;;;;;22.50;100.00;99864.50;8285643;28;20069;-63
2023/07/28 20:57:13;;;;;;;1.23;0.47;;;;;;;22.41;100.00;99865.00;8284388;28;20496;-64
2023/07/28 21:01:14;;;;;;;1.85;1.40;;;;;;;22.39;100.00;99856.16;8286616;28;20046;-63
2023/07/28 21:05:14;;;;;;;1.58;0.90;;;;;;;22.30;100.00;99871.31;8287164;28;20096;-63
2023/07/28 21:09:15;;;;;;;1.13;1.00;;;;;;;22.09;100.00;99860.78;8285540;28;20042;-63
2023/07/28 21:13:16;;;;;;;2.25;0.65;;;;;;;21.91;100.00;99869.91;8281824;28;20129;-63
2023/07/28 21:17:16;;;;;;;1.17;0.90;;;;;;;21.81;100.00;99869.59;8283647;28;20123;-64
2023/07/28 21:21:17;;;;;;;1.58;0.55;;;;;;;21.83;100.00;99872.94;8282506;28;20054;-63
2023/07/28 21:25:17;;;;;;;1.67;1.23;;;;;;;21.79;100.00;99879.13;8283705;28;20038;-63
2023/07/28 21:29:18;;;;;;;2.60;0.80;;;;;;;21.71;100.00;99880.25;8284914;28;20091;-63
2023/07/28 21:33:19;;;;;;;1.30;1.20;;;;;;;21.67;100.00;99884.53;8277968;28;20038;-63